Time;durP1;ratioP1;P1;durP2;ratioP2;P2;SDS_P1;SDS_P2;PMS_P1;PMS_P2;Temp;Humidity;BMP_temperature;BMP_pressure;BME280_temperature;BME280_humidity;BME280_pressure;Samples;Min_cycle;Max_cycle;Signal;HPM_P1;HPM_P2
2023/10/11 00:03:32;;;;;;;2.13;2.03;;;23.00;48.50;;;;;;4996112;28;20496;-60
2023/10/11 00:05:59;;;;;;;2.03;1.87;;;23.00;48.40;;;;;;4996864;28;20460;-61
2023/10/11 00:08:29;;;;;;;2.50;1.80;;;22.90;48.40;;;;;;5002745;28;20460;-59
2023/10/11 00:10:59;;;;;;;2.10;2.00;;;22.90;48.30;;;;;;4993550;28;20934;-61
2023/10/11 00:13:32;;;;;;;2.30;2.10;;;22.90;48.50;;;;;;4992966;28;20464;-60
2023/10/11 00:16:06;;;;;;;1.93;1.83;;;22.90;48.40;;;;;;4996531;28;20456;-60
2023/10/11 00:18:39;;;;;;;2.20;2.07;;;22.90;48.40;;;;;;4999683;28;20465;-61
2023/10/11 00:21:15;;;;;;;2.00;1.90;;;22.90;48.40;;;;;;4998852;28;21161;-60
2023/10/11 00:23:46;;;;;;;1.73;1.63;;;22.90;48.40;;;;;;5001345;28;20460;-61
2023/10/11 00:26:14;;;;;;;6.53;2.20;;;22.90;48.40;;;;;;4993338;28;20524;-62
2023/10/11 00:28:40;;;;;;;2.20;1.97;;;22.90;48.50;;;;;;5004311;28;20463;-59
2023/10/11 00:31:16;;;;;;;1.80;1.70;;;22.90;48.50;;;;;;5012033;28;20464;-61
2023/10/11 00:33:42;;;;;;;2.00;1.90;;;22.90;48.50;;;;;;5001342;28;20480;-59
2023/10/11 00:36:08;;;;;;;2.23;2.03;;;22.90;48.50;;;;;;4996327;28;20468;-60
2023/10/11 00:38:43;;;;;;;2.43;2.23;;;22.90;48.50;;;;;;5008673;28;20216;-61
2023/10/11 00:41:18;;;;;;;1.90;1.80;;;22.90;48.50;;;;;;5008288;28;20729;-61
2023/10/11 00:43:52;;;;;;;2.20;2.10;;;22.90;48.50;;;;;;5013053;28;20467;-60
2023/10/11 00:46:23;;;;;;;2.07;1.97;;;22.90;48.50;;;;;;4992805;28;20480;-62
2023/10/11 00:48:54;;;;;;;2.10;2.00;;;22.90;48.40;;;;;;4995722;28;20449;-60
2023/10/11 00:51:29;;;;;;;2.20;2.10;;;22.90;48.50;;;;;;4994692;28;20448;-61
2023/10/11 00:53:56;;;;;;;1.70;1.60;;;22.90;48.50;;;;;;5002650;28;20468;-59
2023/10/11 00:56:22;;;;;;;2.60;2.27;;;22.90;48.50;;;;;;4993227;28;20506;-59
2023/10/11 00:58:49;;;;;;;2.30;2.20;;;22.90;48.40;;;;;;4998422;28;20949;-60
2023/10/11 01:01:15;;;;;;;2.50;2.30;;;22.90;48.50;;;;;;4995196;28;20465;-62
2023/10/11 01:03:41;;;;;;;2.23;2.13;;;22.90;48.50;;;;;;4993575;28;20480;-64
2023/10/11 01:06:10;;;;;;;2.33;2.13;;;22.90;48.50;;;;;;4995943;28;20617;-59
2023/10/11 01:08:40;;;;;;;1.90;1.80;;;22.90;48.50;;;;;;5004750;28;20288;-61
2023/10/11 01:11:08;;;;;;;2.20;2.03;;;22.90;48.50;;;;;;4992871;28;20565;-60
2023/10/11 01:13:34;;;;;;;2.20;2.10;;;22.90;48.50;;;;;;5004522;28;20964;-61
2023/10/11 01:16:05;;;;;;;2.10;2.00;;;22.90;48.50;;;;;;4989047;28;20487;-60
2023/10/11 01:18:31;;;;;;;2.27;2.17;;;22.90;48.60;;;;;;4987081;28;20235;-59
2023/10/11 01:20:58;;;;;;;2.37;2.17;;;22.90;48.50;;;;;;4998146;28;21000;-61
2023/10/11 01:23:25;;;;;;;2.30;2.20;;;22.90;48.50;;;;;;4994729;28;20554;-59
2023/10/11 01:25:50;;;;;;;2.07;1.97;;;22.90;48.60;;;;;;4999724;28;20815;-61
2023/10/11 01:28:16;;;;;;;2.60;2.40;;;22.90;48.50;;;;;;4997089;28;21384;-59
2023/10/11 01:30:41;;;;;;;2.70;2.40;;;22.90;48.50;;;;;;4999594;28;20645;-61
2023/10/11 01:33:07;;;;;;;2.27;2.17;;;22.90;48.50;;;;;;5010789;28;20235;-59
2023/10/11 01:35:36;;;;;;;1.80;1.70;;;22.90;48.50;;;;;;4996236;28;20271;-62
2023/10/11 01:38:04;;;;;;;2.00;1.90;;;22.90;48.60;;;;;;4996102;28;20787;-61
2023/10/11 01:40:33;;;;;;;2.23;2.10;;;22.90;48.60;;;;;;4994461;28;20457;-61
2023/10/11 01:42:59;;;;;;;2.03;1.93;;;22.90;48.60;;;;;;5003543;28;20543;-60
2023/10/11 01:45:25;;;;;;;1.80;1.70;;;22.90;48.60;;;;;;4999928;28;20533;-59
2023/10/11 01:47:56;;;;;;;2.53;2.40;;;22.90;48.60;;;;;;5015557;28;20516;-61
2023/10/11 01:50:22;;;;;;;1.93;1.83;;;22.90;48.60;;;;;;5016246;28;20309;-60
2023/10/11 01:52:48;;;;;;;2.20;2.07;;;22.90;48.60;;;;;;4993443;28;21216;-60
2023/10/11 01:55:14;;;;;;;1.80;1.70;;;22.90;48.60;;;;;;5009315;28;20997;-61
2023/10/11 01:57:49;;;;;;;2.13;2.03;;;22.90;48.60;;;;;;5014441;28;21543;-59
2023/10/11 02:00:16;;;;;;;2.03;1.93;;;22.90;48.60;;;;;;5012388;28;20471;-59
2023/10/11 02:02:47;;;;;;;2.03;1.93;;;22.90;48.60;;;;;;5001450;28;20460;-59
2023/10/11 02:05:13;;;;;;;2.23;2.03;;;22.90;48.60;;;;;;5005504;28;20463;-59
2023/10/11 02:07:39;;;;;;;1.60;1.50;;;22.90;48.60;;;;;;5021628;28;22954;-61
2023/10/11 02:10:12;;;;;;;2.10;2.00;;;22.90;48.60;;;;;;5002709;28;20452;-61
2023/10/11 02:12:47;;;;;;;2.70;2.50;;;22.90;48.60;;;;;;4993093;28;21248;-60
2023/10/11 02:15:21;;;;;;;2.60;1.70;;;22.90;48.60;;;;;;4994020;28;20993;-61
2023/10/11 02:17:53;;;;;;;2.30;2.10;;;22.90;48.60;;;;;;4995395;28;20970;-60
2023/10/11 02:20:22;;;;;;;1.83;1.73;;;22.90;48.60;;;;;;5008309;28;20485;-65
2023/10/11 02:22:52;;;;;;;1.90;1.80;;;22.90;48.60;;;;;;4999811;28;20815;-60
2023/10/11 02:25:19;;;;;;;1.90;1.80;;;22.90;48.60;;;;;;4992310;28;20455;-61
2023/10/11 02:27:45;;;;;;;1.70;1.60;;;22.90;48.60;;;;;;4999882;28;20507;-60
2023/10/11 02:30:19;;;;;;;2.60;2.40;;;22.90;48.60;;;;;;4998754;28;21359;-61
2023/10/11 02:32:45;;;;;;;1.93;1.83;;;22.90;48.60;;;;;;4991190;28;20484;-60
2023/10/11 02:35:13;;;;;;;1.83;1.73;;;22.90;48.60;;;;;;4991688;28;20462;-60
2023/10/11 02:37:39;;;;;;;2.07;1.97;;;22.90;48.70;;;;;;4992445;28;20226;-59
2023/10/11 02:40:09;;;;;;;1.97;1.87;;;22.90;48.70;;;;;;5011402;28;20464;-60
2023/10/11 02:42:37;;;;;;;1.90;1.80;;;22.90;48.60;;;;;;5011112;28;21018;-60
2023/10/11 02:45:07;;;;;;;2.17;2.07;;;22.90;48.70;;;;;;5012242;28;20486;-64
2023/10/11 02:47:36;;;;;;;1.80;1.70;;;22.90;48.70;;;;;;5012855;28;20473;-62
2023/10/11 02:50:05;;;;;;;1.80;1.70;;;22.90;48.70;;;;;;5003537;28;20458;-61
2023/10/11 02:52:35;;;;;;;1.90;1.80;;;22.90;48.70;;;;;;4991313;28;21172;-59
2023/10/11 02:55:11;;;;;;;1.70;1.60;;;22.90;48.70;;;;;;4994851;28;21333;-60
2023/10/11 02:57:40;;;;;;;2.03;1.93;;;22.90;48.70;;;;;;4996964;28;20498;-61
2023/10/11 03:00:21;;;;;;;2.00;1.90;;;22.90;48.80;;;;;;4993824;28;20958;-62
2023/10/11 03:02:53;;;;;;;2.23;2.03;;;22.90;48.70;;;;;;4993435;28;21818;-61
2023/10/11 03:05:20;;;;;;;2.47;2.37;;;22.90;48.80;;;;;;4997278;28;20492;-60
2023/10/11 03:07:46;;;;;;;2.20;2.10;;;22.80;49.10;;;;;;4993060;28;20471;-60
2023/10/11 03:10:13;;;;;;;2.03;1.93;;;22.90;48.70;;;;;;5010678;28;20460;-60
2023/10/11 03:12:39;;;;;;;2.00;1.60;;;22.90;48.70;;;;;;5011413;28;20229;-59
2023/10/11 03:15:08;;;;;;;1.80;1.70;;;22.90;48.80;;;;;;4990160;28;20450;-61
2023/10/11 03:17:40;;;;;;;2.00;1.90;;;22.90;48.70;;;;;;4992547;28;20227;-60
2023/10/11 03:20:08;;;;;;;1.80;1.70;;;22.90;48.70;;;;;;5007492;28;20476;-62
2023/10/11 03:22:35;;;;;;;2.67;2.30;;;22.90;48.70;;;;;;5003672;28;20565;-62
2023/10/11 03:25:12;;;;;;;2.10;2.00;;;22.90;48.70;;;;;;4996935;28;20470;-59
2023/10/11 03:27:45;;;;;;;2.70;2.50;;;22.90;48.70;;;;;;5003410;28;20438;-60
2023/10/11 03:30:13;;;;;;;1.93;1.83;;;22.80;48.60;;;;;;5007803;28;20829;-60
2023/10/11 03:32:41;;;;;;;2.00;1.90;;;22.90;48.70;;;;;;4990202;28;20462;-63
2023/10/11 03:35:08;;;;;;;2.57;1.83;;;22.80;48.70;;;;;;4998600;28;20456;-61
2023/10/11 03:37:37;;;;;;;1.77;1.67;;;22.90;48.80;;;;;;5010237;28;20467;-60
2023/10/11 03:40:13;;;;;;;1.80;1.70;;;22.90;48.70;;;;;;4991842;28;20458;-62
2023/10/11 03:42:51;;;;;;;2.10;1.90;;;22.80;48.70;;;;;;4990785;28;20508;-61
2023/10/11 03:45:20;;;;;;;1.80;1.70;;;22.90;48.80;;;;;;4992712;28;20453;-62
2023/10/11 03:47:47;;;;;;;1.90;1.80;;;22.90;48.70;;;;;;4992481;28;20496;-59
2023/10/11 03:50:12;;;;;;;1.70;1.60;;;22.90;48.70;;;;;;4991442;28;20957;-60
2023/10/11 03:52:40;;;;;;;1.67;1.57;;;22.80;48.60;;;;;;4994104;28;20475;-62
2023/10/11 03:55:14;;;;;;;2.10;2.00;;;22.80;48.70;;;;;;4990449;28;20636;-61
2023/10/11 03:57:45;;;;;;;2.30;2.10;;;22.90;48.70;;;;;;4999314;28;20472;-59
2023/10/11 04:03:02;;;;;;;1.90;1.80;;;22.80;48.70;;;;;;5014606;28;20445;-62
2023/10/11 04:05:33;;;;;;;1.97;1.87;;;22.80;48.70;;;;;;4996241;28;20531;-60
2023/10/11 04:08:03;;;;;;;2.13;2.03;;;22.80;48.70;;;;;;5010367;28;20791;-60
2023/10/11 04:10:38;;;;;;;2.07;1.97;;;22.80;48.70;;;;;;5010555;28;20500;-59
2023/10/11 04:13:08;;;;;;;2.23;2.13;;;22.80;48.70;;;;;;5008830;28;20492;-61
2023/10/11 04:15:34;;;;;;;2.40;2.20;;;22.80;48.70;;;;;;4995838;28;20873;-61
2023/10/11 04:18:05;;;;;;;1.90;1.80;;;22.80;48.70;;;;;;5000219;28;20471;-63
2023/10/11 04:20:33;;;;;;;2.20;2.00;;;22.90;48.80;;;;;;4998744;28;20314;-60
2023/10/11 04:23:10;;;;;;;2.10;1.90;;;22.90;48.80;;;;;;5004090;28;20551;-60
2023/10/11 04:25:37;;;;;;;2.07;1.97;;;22.90;48.70;;;;;;4991324;28;20470;-61
2023/10/11 04:28:05;;;;;;;2.00;1.90;;;22.90;48.70;;;;;;4996396;28;20467;-60
2023/10/11 04:30:44;;;;;;;2.00;1.90;;;22.90;48.60;;;;;;4996716;28;20515;-60
2023/10/11 04:33:12;;;;;;;1.80;1.70;;;22.90;48.60;;;;;;5001837;28;20489;-63
2023/10/11 04:35:38;;;;;;;2.30;1.60;;;22.90;48.60;;;;;;5009183;28;20453;-59
2023/10/11 04:38:10;;;;;;;2.20;2.00;;;22.90;48.50;;;;;;4990241;28;20469;-60
2023/10/11 04:40:41;;;;;;;2.13;2.03;;;22.90;48.60;;;;;;4990336;28;20461;-59
2023/10/11 04:43:20;;;;;;;2.50;1.93;;;22.90;48.50;;;;;;5001399;28;20480;-59
2023/10/11 04:45:47;;;;;;;1.80;1.70;;;22.90;48.50;;;;;;4993243;28;20988;-62
2023/10/11 04:48:29;;;;;;;2.07;1.97;;;22.90;48.50;;;;;;4993114;28;20460;-61
2023/10/11 04:51:04;;;;;;;2.70;1.90;;;22.90;48.50;;;;;;4999536;28;20471;-60
2023/10/11 04:53:34;;;;;;;2.53;2.37;;;22.90;48.60;;;;;;5008422;28;20517;-62
2023/10/11 04:56:09;;;;;;;3.17;2.97;;;22.90;48.50;;;;;;5010342;28;20491;-62
2023/10/11 05:01:08;;;;;;;1.83;1.73;;;22.90;48.50;;;;;;5009719;28;20464;-69
2023/10/11 05:03:37;;;;;;;1.80;1.70;;;22.90;48.60;;;;;;5003620;28;20554;-59
2023/10/11 05:06:19;;;;;;;2.23;1.87;;;23.00;48.50;;;;;;4993044;28;20968;-60
2023/10/11 05:08:51;;;;;;;6.87;2.87;;;23.00;48.50;;;;;;4991719;28;21230;-62
2023/10/11 05:11:36;;;;;;;28.03;6.80;;;23.00;48.50;;;;;;4991657;28;20439;-62
2023/10/11 05:16:49;;;;;;;25.03;4.50;;;23.10;48.70;;;;;;5007828;28;21055;-59
2023/10/11 05:19:20;;;;;;;6.70;3.27;;;23.10;48.70;;;;;;5009547;28;20465;-60
2023/10/11 05:21:53;;;;;;;4.17;3.47;;;23.10;48.70;;;;;;5001903;28;20229;-63
2023/10/11 05:27:36;;;;;;;7.80;3.03;;;23.20;48.90;;;;;;4990615;28;20584;-64
2023/10/11 05:52:07;;;;;;;20.37;3.63;;;23.30;49.00;;;;;;5010542;28;20987;-60
2023/10/11 05:54:36;;;;;;;28.80;4.07;;;23.30;49.00;;;;;;5014910;28;20587;-60
2023/10/11 05:57:05;;;;;;;26.30;6.07;;;23.30;49.00;;;;;;5009526;28;20844;-61
2023/10/11 05:59:37;;;;;;;21.83;6.07;;;23.30;48.90;;;;;;4996433;28;20453;-64
2023/10/11 06:02:07;;;;;;;23.70;7.60;;;23.30;48.80;;;;;;4997546;28;20889;-60
2023/10/11 06:04:39;;;;;;;23.73;7.47;;;23.40;48.90;;;;;;4996704;28;20688;-60
2023/10/11 06:07:05;;;;;;;49.13;12.00;;;23.40;48.90;;;;;;5004841;28;20937;-59
2023/10/11 06:09:38;;;;;;;40.40;8.83;;;23.40;48.80;;;;;;4995826;28;20532;-61
2023/10/11 06:12:09;;;;;;;41.37;7.23;;;23.50;48.90;;;;;;4995775;28;20561;-59
2023/10/11 06:14:36;;;;;;;21.80;6.30;;;23.50;48.90;;;;;;4995824;28;20830;-60
2023/10/11 06:17:05;;;;;;;96.87;12.07;;;23.50;48.80;;;;;;4991939;28;20520;-60
2023/10/11 06:19:31;;;;;;;311.17;30.33;;;23.50;48.80;;;;;;5008549;28;20471;-63
2023/10/11 06:21:57;;;;;;;125.90;15.80;;;23.50;48.70;;;;;;5001180;28;20472;-63
2023/10/11 06:24:30;;;;;;;80.60;16.47;;;23.50;48.80;;;;;;4996481;28;20465;-63
2023/10/11 06:27:03;;;;;;;44.70;10.60;;;23.50;48.70;;;;;;4993825;28;20473;-61
2023/10/11 06:29:29;;;;;;;47.93;9.80;;;23.60;48.70;;;;;;5006182;28;20964;-60
2023/10/11 06:31:55;;;;;;;20.87;7.30;;;23.50;48.60;;;;;;4991613;28;20957;-59
2023/10/11 06:34:26;;;;;;;13.53;6.27;;;23.50;48.70;;;;;;4994894;28;20463;-60
2023/10/11 06:36:53;;;;;;;14.07;4.67;;;23.50;48.70;;;;;;4992474;28;20223;-61
2023/10/11 06:42:13;;;;;;;8.40;4.60;;;23.50;49.50;;;;;;5011927;28;20486;-60
2023/10/11 06:44:52;;;;;;;11.10;3.60;;;23.50;48.70;;;;;;5002065;28;20493;-69
2023/10/11 06:47:20;;;;;;;6.30;2.80;;;23.50;48.80;;;;;;4990403;28;21015;-59
2023/10/11 06:49:54;;;;;;;3.40;3.10;;;23.50;48.80;;;;;;4992192;28;20468;-60
2023/10/11 06:52:25;;;;;;;3.43;3.13;;;23.50;48.70;;;;;;5004881;28;21298;-58
2023/10/11 06:55:07;;;;;;;3.10;2.80;;;23.50;48.80;;;;;;4991921;28;20526;-60
2023/10/11 06:57:39;;;;;;;2.70;2.50;;;23.50;48.80;;;;;;5003950;28;20463;-61
2023/10/11 07:00:23;;;;;;;3.23;2.90;;;23.50;49.50;;;;;;4999565;28;20456;-59
2023/10/11 07:02:52;;;;;;;6.07;3.20;;;23.50;48.70;;;;;;4992122;28;20469;-58
2023/10/11 07:05:20;;;;;;;5.50;2.60;;;23.50;48.70;;;;;;4991302;28;20461;-59
2023/10/11 07:07:48;;;;;;;3.23;2.93;;;23.50;48.70;;;;;;5002850;28;20480;-59
2023/10/11 07:13:12;;;;;;;4.00;3.60;;;23.50;49.40;;;;;;4976668;28;20476;-59
2023/10/11 07:15:46;;;;;;;3.43;2.80;;;23.50;48.60;;;;;;5011491;28;20449;-62
2023/10/11 07:18:21;;;;;;;2.73;2.43;;;23.50;48.60;;;;;;5012466;28;20488;-59
2023/10/11 07:21:07;;;;;;;5.77;2.83;;;23.50;48.50;;;;;;5002672;28;20448;-58
2023/10/11 07:23:46;;;;;;;3.60;3.10;;;23.50;48.60;;;;;;4998479;28;20520;-59
2023/10/11 07:28:59;;;;;;;2.80;2.60;;;23.50;48.50;;;;;;4993211;28;20456;-59
2023/10/11 07:31:32;;;;;;;4.90;2.90;;;23.40;48.30;;;;;;5005281;28;20466;-58
2023/10/11 07:33:57;;;;;;;3.87;2.97;;;23.50;48.50;;;;;;5012165;28;20510;-62
2023/10/11 07:36:23;;;;;;;3.20;3.00;;;23.50;48.50;;;;;;4992966;28;21100;-58
2023/10/11 07:39:14;;;;;;;3.87;3.60;;;23.50;48.40;;;;;;4992918;28;20723;-58
2023/10/11 07:41:35;;;;;;;3.03;2.80;;;23.50;48.30;;;;;;5009807;28;20245;-58
2023/10/11 07:44:08;;;;;;;3.13;2.83;;;23.40;48.20;;;;;;5006631;28;20456;-60
2023/10/11 07:46:34;;;;;;;3.00;2.80;;;23.40;48.20;;;;;;5013583;28;20459;-62
2023/10/11 07:49:02;;;;;;;3.10;2.80;;;23.40;48.20;;;;;;5013657;28;20448;-62
2023/10/11 07:51:30;;;;;;;3.53;2.67;;;23.40;48.20;;;;;;5015540;28;20733;-61
2023/10/11 07:53:55;;;;;;;2.83;2.63;;;23.40;48.10;;;;;;5010392;28;20505;-59
2023/10/11 07:56:21;;;;;;;2.30;2.20;;;23.40;48.10;;;;;;5002860;28;20615;-60
2023/10/11 07:58:48;;;;;;;3.90;2.40;;;23.40;48.20;;;;;;4993206;28;20230;-59
2023/10/11 08:03:59;;;;;;;2.73;2.53;;;23.40;48.10;;;;;;4991933;28;20480;-62
2023/10/11 08:06:25;;;;;;;3.17;2.90;;;23.40;48.10;;;;;;4992682;28;20444;-59
2023/10/11 08:08:59;;;;;;;2.00;1.90;;;23.40;48.00;;;;;;4992803;28;20218;-59
2023/10/11 08:11:36;;;;;;;3.10;2.73;;;23.40;48.10;;;;;;5002187;28;20215;-59
2023/10/11 08:14:06;;;;;;;5.10;2.70;;;23.40;48.00;;;;;;4993214;28;20477;-59
2023/10/11 08:16:33;;;;;;;2.70;2.50;;;23.40;48.00;;;;;;4993961;28;20459;-60
2023/10/11 08:18:59;;;;;;;2.60;2.40;;;23.40;47.80;;;;;;4992571;28;20499;-59
2023/10/11 08:21:25;;;;;;;5.17;2.53;;;23.40;47.80;;;;;;4993243;28;20587;-59
2023/10/11 08:23:50;;;;;;;2.50;2.30;;;23.50;47.80;;;;;;4989973;28;20449;-58
2023/10/11 08:26:19;;;;;;;2.83;2.30;;;23.40;47.70;;;;;;5002634;28;20215;-58
2023/10/11 08:28:48;;;;;;;2.30;2.10;;;23.40;47.70;;;;;;5001061;28;20695;-59
2023/10/11 08:31:35;;;;;;;2.70;2.50;;;23.40;47.70;;;;;;4993288;28;20468;-59
2023/10/11 08:34:03;;;;;;;2.40;2.20;;;23.40;47.70;;;;;;5000199;28;20476;-62
2023/10/11 08:36:33;;;;;;;2.60;2.40;;;23.40;47.70;;;;;;5011307;28;20491;-59
2023/10/11 08:39:05;;;;;;;3.37;2.43;;;23.40;47.70;;;;;;5013585;28;20476;-58
2023/10/11 08:41:31;;;;;;;2.57;2.37;;;23.40;47.70;;;;;;5012069;28;20479;-58
2023/10/11 08:43:59;;;;;;;2.17;2.07;;;23.40;47.70;;;;;;5008151;28;20468;-59
2023/10/11 08:46:31;;;;;;;2.33;2.13;;;23.40;47.70;;;;;;4986922;28;20460;-61
2023/10/11 08:49:00;;;;;;;2.73;2.53;;;23.40;47.70;;;;;;5004624;28;20471;-62
2023/10/11 08:51:36;;;;;;;2.77;2.57;;;23.40;47.70;;;;;;4998364;28;20484;-59
2023/10/11 08:54:11;;;;;;;2.83;2.50;;;23.40;47.70;;;;;;4984965;28;20585;-59
2023/10/11 08:56:39;;;;;;;2.20;2.10;;;23.40;48.40;;;;;;4989736;28;20552;-62
2023/10/11 08:59:05;;;;;;;2.97;2.77;;;23.40;47.70;;;;;;4983054;28;20460;-62
2023/10/11 09:01:36;;;;;;;2.00;1.90;;;23.40;47.70;;;;;;4995079;28;20472;-59
2023/10/11 09:04:04;;;;;;;2.97;2.77;;;23.40;47.70;;;;;;4988200;28;20234;-60
2023/10/11 09:06:31;;;;;;;2.40;2.30;;;23.40;47.70;;;;;;4988496;28;20465;-60
2023/10/11 09:09:00;;;;;;;2.57;2.30;;;23.40;47.70;;;;;;4989549;28;20464;-62
2023/10/11 09:11:28;;;;;;;2.13;2.03;;;23.40;47.70;;;;;;4985762;28;21654;-58
2023/10/11 09:14:29;;;;;;;2.20;2.00;;;23.40;47.70;;;;;;4988681;28;20559;-59
2023/10/11 09:17:02;;;;;;;2.97;2.50;;;23.40;47.70;;;;;;4991570;28;20471;-58
2023/10/11 09:19:28;;;;;;;2.20;2.10;;;23.40;47.70;;;;;;4991323;28;20471;-57
2023/10/11 09:22:02;;;;;;;3.50;2.20;;;23.40;47.70;;;;;;4994944;28;20472;-61
2023/10/11 09:24:29;;;;;;;2.80;2.60;;;23.40;47.70;;;;;;5006500;28;20314;-61
2023/10/11 09:27:12;;;;;;;2.27;2.10;;;23.40;47.70;;;;;;4991362;28;20555;-60
2023/10/11 09:29:38;;;;;;;2.10;1.93;;;23.40;47.70;;;;;;5008317;28;20464;-59
2023/10/11 09:32:05;;;;;;;2.63;2.43;;;23.40;47.70;;;;;;5008679;28;20467;-61
2023/10/11 09:34:31;;;;;;;2.20;2.10;;;23.40;47.70;;;;;;4994505;28;20834;-60
2023/10/11 09:36:57;;;;;;;2.50;2.10;;;23.40;47.70;;;;;;4988169;28;20472;-58
2023/10/11 09:39:26;;;;;;;2.30;2.10;;;23.40;47.70;;;;;;4985491;28;20484;-58
2023/10/11 09:42:04;;;;;;;2.50;2.30;;;23.40;47.70;;;;;;4989854;28;20481;-60
2023/10/11 09:44:40;;;;;;;2.30;2.10;;;23.40;47.70;;;;;;4982933;28;20468;-61
2023/10/11 09:47:17;;;;;;;38.67;3.50;;;23.40;47.70;;;;;;4986324;28;21033;-61
2023/10/11 09:49:44;;;;;;;2.17;2.00;;;23.40;47.70;;;;;;4981540;28;20544;-60
2023/10/11 09:52:11;;;;;;;2.00;1.90;;;23.40;47.70;;;;;;4983137;28;20571;-62
2023/10/11 09:54:38;;;;;;;2.30;2.10;;;23.30;47.60;;;;;;4977870;28;20473;-61
2023/10/11 09:57:13;;;;;;;2.23;2.13;;;23.40;47.70;;;;;;4987847;28;20588;-59
2023/10/11 10:00:00;;;;;;;2.30;2.10;;;23.40;47.70;;;;;;4979290;28;20474;-61
2023/10/11 10:02:30;;;;;;;2.73;2.10;;;23.40;47.70;;;;;;4983558;28;20472;-60
2023/10/11 10:04:57;;;;;;;2.67;2.47;;;23.40;47.70;;;;;;5008582;28;20472;-58
2023/10/11 10:10:06;;;;;;;1.90;1.80;;;23.40;47.70;;;;;;4993076;28;20470;-58
2023/10/11 10:12:34;;;;;;;2.40;2.20;;;23.40;47.70;;;;;;4996614;28;21178;-59
2023/10/11 10:15:09;;;;;;;2.27;2.17;;;23.40;47.70;;;;;;4989933;28;20501;-61
2023/10/11 10:17:37;;;;;;;2.17;2.07;;;23.40;47.70;;;;;;4986607;28;20549;-61
2023/10/11 10:20:41;;;;;;;2.33;2.23;;;23.40;47.70;;;;;;4983881;28;20560;-59
2023/10/11 10:23:16;;;;;;;2.13;2.03;;;23.40;47.70;;;;;;4970810;28;20560;-59
2023/10/11 10:25:46;;;;;;;2.40;2.20;;;23.40;47.70;;;;;;4991915;28;20460;-59
2023/10/11 10:28:35;;;;;;;2.03;1.93;;;23.40;47.70;;;;;;4988949;28;21266;-60
2023/10/11 10:31:13;;;;;;;2.90;2.70;;;23.40;47.70;;;;;;4997762;28;20463;-61
2023/10/11 10:33:58;;;;;;;2.53;2.33;;;23.40;47.70;;;;;;4996025;28;20484;-59
2023/10/11 10:36:28;;;;;;;2.93;2.73;;;23.40;47.70;;;;;;5009258;28;20451;-56
2023/10/11 10:39:00;;;;;;;3.20;3.00;;;23.40;47.70;;;;;;4998361;28;20563;-58
2023/10/11 10:41:31;;;;;;;3.37;3.17;;;23.40;47.70;;;;;;4995579;28;21065;-58
2023/10/11 10:44:04;;;;;;;4.43;4.07;;;23.40;47.70;;;;;;4999878;28;21008;-59
2023/10/11 10:46:33;;;;;;;4.60;4.30;;;23.40;47.70;;;;;;4994049;28;20441;-58
2023/10/11 10:49:01;;;;;;;5.40;4.70;;;23.40;48.40;;;;;;4995605;28;21521;-59
2023/10/11 10:51:35;;;;;;;4.93;4.57;;;23.40;47.70;;;;;;4993536;28;21465;-63
2023/10/11 10:54:12;;;;;;;5.40;5.10;;;23.40;47.70;;;;;;5007586;28;20815;-60
2023/10/11 10:56:46;;;;;;;6.70;5.43;;;23.40;47.70;;;;;;4994445;28;20456;-61
2023/10/11 10:59:14;;;;;;;8.33;7.53;;;23.40;47.70;;;;;;4992059;28;20481;-60
2023/10/11 11:01:40;;;;;;;7.23;6.73;;;23.40;47.70;;;;;;4986663;28;20542;-61
2023/10/11 11:04:09;;;;;;;7.20;6.50;;;23.40;47.70;;;;;;4987827;28;20476;-61
2023/10/11 11:06:38;;;;;;;8.03;7.10;;;23.40;47.70;;;;;;4993015;28;20489;-60
2023/10/11 11:09:04;;;;;;;6.70;6.20;;;23.40;47.70;;;;;;4995246;28;20470;-60
2023/10/11 11:11:35;;;;;;;8.00;7.40;;;23.40;47.70;;;;;;4993718;28;20554;-62
2023/10/11 11:14:09;;;;;;;8.33;7.50;;;23.40;47.70;;;;;;4990130;28;20743;-61
2023/10/11 11:16:39;;;;;;;8.20;7.20;;;23.40;47.70;;;;;;5005319;28;20457;-59
2023/10/11 11:19:16;;;;;;;8.47;7.73;;;23.40;47.70;;;;;;4992001;28;20449;-60
2023/10/11 11:21:44;;;;;;;8.77;7.80;;;23.40;47.70;;;;;;4988834;28;20459;-60
2023/10/11 11:24:34;;;;;;;8.47;7.67;;;23.40;47.70;;;;;;4991224;28;20468;-60
2023/10/11 11:27:01;;;;;;;9.20;8.30;;;23.40;47.70;;;;;;5002257;28;20473;-63
2023/10/11 11:29:33;;;;;;;9.40;8.50;;;23.40;47.70;;;;;;4986104;28;20453;-60
2023/10/11 11:32:14;;;;;;;10.27;8.80;;;23.40;47.70;;;;;;4985452;28;20465;-60
2023/10/11 11:35:02;;;;;;;9.93;9.00;;;23.40;47.70;;;;;;4986545;28;20476;-60
2023/10/11 11:37:29;;;;;;;10.87;8.67;;;23.40;47.70;;;;;;4997384;28;21528;-60
2023/10/11 11:40:17;;;;;;;10.07;9.07;;;23.40;47.70;;;;;;5002016;28;21520;-63
2023/10/11 11:42:47;;;;;;;10.43;9.53;;;23.40;47.70;;;;;;4979934;28;20487;-59
2023/10/11 11:45:14;;;;;;;10.20;9.17;;;23.40;47.70;;;;;;4983503;28;20470;-59
2023/10/11 11:47:50;;;;;;;10.67;9.57;;;23.40;47.70;;;;;;4979219;28;20465;-62
2023/10/11 11:50:18;;;;;;;10.60;9.70;;;23.40;47.70;;;;;;4980582;28;20469;-59
2023/10/11 11:52:43;;;;;;;9.77;8.37;;;23.30;47.60;;;;;;4978818;28;20520;-62
2023/10/11 11:55:09;;;;;;;9.87;8.87;;;23.40;47.70;;;;;;4982603;28;20465;-61
2023/10/11 11:57:35;;;;;;;10.57;9.00;;;23.40;47.70;;;;;;4977953;28;20318;-59
2023/10/11 12:00:19;;;;;;;10.90;9.90;;;23.40;47.70;;;;;;4984621;28;20273;-61
2023/10/11 12:02:45;;;;;;;9.57;8.77;;;23.40;47.70;;;;;;4987318;28;20262;-58
2023/10/11 12:05:11;;;;;;;9.30;8.37;;;23.40;47.70;;;;;;4983378;28;20457;-59
2023/10/11 12:07:36;;;;;;;9.27;8.40;;;23.40;47.70;;;;;;4980589;28;20280;-62
2023/10/11 12:10:10;;;;;;;10.53;9.43;;;23.40;47.70;;;;;;4978691;28;20544;-61
2023/10/11 12:12:36;;;;;;;10.00;9.00;;;23.40;47.70;;;;;;4977419;28;20322;-59
2023/10/11 12:15:03;;;;;;;10.33;9.40;;;23.40;47.70;;;;;;4974437;28;20472;-61
2023/10/11 12:17:29;;;;;;;11.13;10.10;;;23.40;47.70;;;;;;4982895;28;21732;-60
2023/10/11 12:19:55;;;;;;;10.03;9.03;;;23.40;47.70;;;;;;4982056;28;20470;-58
2023/10/11 12:22:22;;;;;;;9.70;8.80;;;23.40;47.70;;;;;;4986169;28;20305;-58
2023/10/11 12:24:48;;;;;;;9.93;9.03;;;23.40;47.70;;;;;;4995819;28;20313;-58
2023/10/11 12:27:13;;;;;;;11.27;10.20;;;23.40;47.70;;;;;;4993603;28;20544;-59
2023/10/11 12:29:40;;;;;;;9.53;8.63;;;23.40;47.70;;;;;;4996272;28;20465;-60
2023/10/11 12:32:08;;;;;;;11.03;10.03;;;23.40;47.70;;;;;;4999151;28;20227;-60
2023/10/11 12:34:34;;;;;;;10.03;9.13;;;23.40;47.70;;;;;;4985299;28;20512;-60
2023/10/11 12:37:02;;;;;;;11.20;10.00;;;23.40;47.70;;;;;;4985172;28;20542;-61
2023/10/11 12:39:31;;;;;;;10.10;9.20;;;23.40;47.70;;;;;;4985689;28;20813;-61
2023/10/11 12:41:59;;;;;;;10.30;9.40;;;23.40;47.70;;;;;;4989770;28;20477;-61
2023/10/11 12:44:28;;;;;;;11.60;9.80;;;23.40;47.70;;;;;;4982886;28;21163;-58
2023/10/11 12:46:54;;;;;;;15.20;10.70;;;23.40;47.70;;;;;;4978725;28;20461;-59
2023/10/11 12:49:19;;;;;;;37.63;12.23;;;23.40;47.70;;;;;;4999011;28;20473;-59
2023/10/11 12:51:46;;;;;;;13.07;9.77;;;23.40;47.70;;;;;;4981611;28;20239;-59
2023/10/11 12:54:19;;;;;;;14.00;10.50;;;23.40;47.70;;;;;;4983667;28;21267;-61
2023/10/11 12:56:46;;;;;;;11.50;9.40;;;23.40;47.70;;;;;;4995671;28;20476;-58
2023/10/11 12:59:12;;;;;;;14.00;9.13;;;23.40;47.70;;;;;;4987991;28;20472;-63
2023/10/11 13:01:50;;;;;;;10.83;9.77;;;23.40;47.70;;;;;;4981801;28;20518;-65
2023/10/11 13:04:23;;;;;;;11.60;9.90;;;23.40;47.70;;;;;;4989098;28;20613;-60
2023/10/11 13:06:50;;;;;;;10.33;9.43;;;23.40;47.70;;;;;;5007354;28;20478;-63
2023/10/11 13:09:21;;;;;;;14.00;10.63;;;23.50;47.80;;;;;;4988501;28;20510;-62
2023/10/11 13:11:47;;;;;;;10.10;9.17;;;23.50;47.80;;;;;;4989095;28;20480;-63
2023/10/11 13:14:18;;;;;;;10.17;9.07;;;23.50;47.80;;;;;;4987488;28;20481;-60
2023/10/11 13:16:45;;;;;;;10.97;9.97;;;23.50;47.80;;;;;;4989252;28;20464;-58
2023/10/11 13:19:17;;;;;;;12.90;10.70;;;23.50;47.80;;;;;;4974940;28;20877;-66
2023/10/11 13:21:44;;;;;;;14.77;10.97;;;23.40;47.70;;;;;;4977752;28;20587;-58
2023/10/11 13:24:12;;;;;;;11.70;9.90;;;23.50;47.80;;;;;;4985321;28;20553;-63
2023/10/11 13:26:42;;;;;;;10.47;9.47;;;23.40;47.70;;;;;;4987809;28;21649;-59
2023/10/11 13:29:09;;;;;;;11.23;10.13;;;23.40;47.70;;;;;;4994286;28;20465;-61
2023/10/11 13:31:34;;;;;;;12.83;9.97;;;23.50;47.80;;;;;;4982282;28;20465;-60
2023/10/11 13:34:05;;;;;;;11.13;10.07;;;23.50;47.80;;;;;;4985679;28;20840;-64
2023/10/11 13:36:33;;;;;;;12.30;10.00;;;23.40;47.70;;;;;;4980958;28;20215;-63
2023/10/11 13:39:00;;;;;;;16.30;10.33;;;23.40;47.70;;;;;;4980469;28;20504;-61
2023/10/11 13:41:29;;;;;;;14.97;10.30;;;23.40;47.70;;;;;;4991501;28;20683;-58
2023/10/11 13:43:55;;;;;;;17.00;9.87;;;23.40;47.70;;;;;;4977451;28;20465;-59
2023/10/11 13:46:22;;;;;;;20.63;10.37;;;23.40;47.70;;;;;;4979445;28;20679;-60
2023/10/11 13:48:49;;;;;;;17.87;10.37;;;23.40;47.70;;;;;;4982221;28;21082;-62